Time;durP1;ratioP1;P1;durP2;ratioP2;P2;SDS_P1;SDS_P2;PMS_P1;PMS_P2;Temp;Humidity;BMP_temperature;BMP_pressure;BME280_temperature;BME280_humidity;BME280_pressure;Samples;Min_cycle;Max_cycle;Signal;HPM_P1;HPM_P2
2023/08/24 00:08:06;;;;;;;4.80;3.40;;;17.80;1.00;;;;;;20839247;28;20032;-43
2023/08/24 00:18:08;;;;;;;4.95;3.42;;;17.80;1.00;;;;;;20849080;28;20550;-43
2023/08/24 00:28:08;;;;;;;7.47;4.40;;;17.80;1.00;;;;;;20843771;28;20040;-43
2023/08/24 00:38:09;;;;;;;9.20;5.25;;;17.90;1.00;;;;;;20837366;28;20065;-43
2023/08/24 00:48:10;;;;;;;6.38;4.50;;;18.00;1.00;;;;;;20834057;28;20501;-43
2023/08/24 00:58:12;;;;;;;6.43;4.63;;;18.00;1.00;;;;;;20844035;28;20064;-43
2023/08/24 01:08:13;;;;;;;6.40;3.85;;;18.00;1.00;;;;;;20862504;28;20029;-43
2023/08/24 01:18:18;;;;;;;7.13;4.10;;;17.90;1.00;;;;;;20859565;28;20053;-43
2023/08/24 01:28:22;;;;;;;6.47;3.85;;;17.90;1.00;;;;;;20863576;28;20082;-43
2023/08/24 01:38:23;;;;;;;5.15;3.42;;;17.80;1.00;;;;;;20862340;28;20052;-44
2023/08/24 01:48:24;;;;;;;5.43;3.60;;;17.80;1.00;;;;;;20862907;28;20518;-44
2023/08/24 01:58:25;;;;;;;7.78;3.83;;;17.90;1.00;;;;;;20854010;28;20041;-43
2023/08/24 02:08:25;;;;;;;6.85;4.13;;;17.80;1.00;;;;;;20842964;28;20569;-43
2023/08/24 02:18:26;;;;;;;7.60;4.45;;;17.60;1.00;;;;;;20841997;28;21702;-43
2023/08/24 02:28:26;;;;;;;10.50;5.13;;;17.50;10.70;;;;;;20844380;28;20071;-44
2023/08/24 02:38:27;;;;;;;9.32;5.13;;;17.50;19.80;;;;;;20846523;28;20532;-43
2023/08/24 02:48:28;;;;;;;7.57;4.95;;;17.40;31.50;;;;;;20841780;28;20500;-43
2023/08/24 02:58:29;;;;;;;8.88;6.10;;;17.30;30.90;;;;;;20844697;28;20044;-43
2023/08/24 03:08:31;;;;;;;9.27;5.43;;;17.30;21.70;;;;;;20842572;28;20041;-43
2023/08/24 03:18:32;;;;;;;7.88;5.15;;;17.30;29.80;;;;;;20842695;28;20056;-43
2023/08/24 03:28:32;;;;;;;7.68;5.43;;;17.30;30.00;;;;;;20840116;28;20224;-43
2023/08/24 03:38:33;;;;;;;12.00;6.18;;;17.10;35.40;;;;;;20840939;28;20041;-44
2023/08/24 03:48:33;;;;;;;8.27;5.73;;;17.00;39.10;;;;;;20835394;28;20102;-43
2023/08/24 03:58:34;;;;;;;9.50;5.75;;;17.00;44.10;;;;;;20837016;28;20558;-43
2023/08/24 04:08:34;;;;;;;7.85;6.18;;;17.00;44.50;;;;;;20837815;28;20642;-43
2023/08/24 04:18:35;;;;;;;10.30;7.40;;;16.90;60.90;;;;;;20837781;28;20056;-43
2023/08/24 04:28:35;;;;;;;10.75;7.40;;;17.00;67.20;;;;;;20840429;28;20045;-43
2023/08/24 04:38:36;;;;;;;11.68;8.43;;;16.90;63.30;;;;;;20843384;28;20056;-43
2023/08/24 04:48:37;;;;;;;10.60;8.13;;;16.90;73.60;;;;;;20855896;28;20337;-43
2023/08/24 04:58:37;;;;;;;11.25;8.75;;;16.90;79.00;;;;;;20848332;28;20265;-43
2023/08/24 05:08:38;;;;;;;12.00;9.15;;;17.00;89.10;;;;;;20846638;28;20510;-43
2023/08/24 05:18:39;;;;;;;13.70;9.65;;;17.00;93.20;;;;;;20851400;28;20037;-43
2023/08/24 05:28:39;;;;;;;12.82;8.57;;;17.20;82.50;;;;;;20858472;28;20029;-43
2023/08/24 05:38:46;;;;;;;12.25;8.77;;;17.30;72.60;;;;;;20861214;28;20095;-43
2023/08/24 05:48:47;;;;;;;11.18;9.13;;;17.30;64.30;;;;;;20863351;28;20129;-43
2023/08/24 05:58:48;;;;;;;11.40;8.25;;;17.40;73.30;;;;;;20857579;28;20350;-43
2023/08/24 06:08:48;;;;;;;11.90;9.07;;;17.80;49.70;;;;;;20857106;28;20037;-44
2023/08/24 06:18:49;;;;;;;12.43;8.40;;;17.90;45.50;;;;;;20843855;28;20076;-43
2023/08/24 06:28:50;;;;;;;13.27;8.52;;;18.00;25.80;;;;;;20831270;28;20420;-43
2023/08/24 06:38:51;;;;;;;11.85;9.05;;;18.20;27.70;;;;;;20836938;28;20045;-43
2023/08/24 06:48:51;;;;;;;13.07;10.07;;;18.40;15.60;;;;;;20840295;28;20037;-43
2023/08/24 06:58:52;;;;;;;11.57;7.65;;;18.70;2.00;;;;;;20847047;28;20042;-44
2023/08/24 07:08:52;;;;;;;10.82;7.85;;;18.90;2.50;;;;;;20845322;28;20089;-43
2023/08/24 07:18:53;;;;;;;11.07;7.97;;;19.20;1.00;;;;;;20841060;28;20053;-44
2023/08/24 07:28:53;;;;;;;11.05;7.88;;;19.60;1.00;;;;;;20842760;28;20095;-43
2023/08/24 07:38:54;;;;;;;9.93;6.25;;;19.80;1.00;;;;;;20837130;28;20073;-44
2023/08/24 07:48:56;;;;;;;12.20;7.80;;;20.10;1.00;;;;;;20828968;28;20063;-44
2023/08/24 07:58:56;;;;;;;10.73;7.05;;;20.40;1.00;;;;;;20844187;28;20095;-44
2023/08/24 08:08:57;;;;;;;10.00;7.07;;;20.80;1.00;;;;;;20844784;28;20075;-44
2023/08/24 08:18:58;;;;;;;6.88;5.30;;;21.40;1.00;;;;;;20859515;28;20089;-44
2023/08/24 08:28:58;;;;;;;9.63;6.25;;;21.80;1.00;;;;;;20871735;28;20045;-44
2023/08/24 08:38:59;;;;;;;11.27;5.60;;;22.20;1.00;;;;;;20866151;28;20045;-44
2023/08/24 08:49:06;;;;;;;7.28;5.47;;;22.60;1.00;;;;;;20868675;28;20072;-43
2023/08/24 08:59:08;;;;;;;10.43;7.33;;;22.80;1.00;;;;;;20866684;28;20331;-44
2023/08/24 09:09:09;;;;;;;9.50;6.65;;;23.20;1.00;;;;;;20865890;28;20033;-44
2023/08/24 09:19:11;;;;;;;9.02;5.80;;;23.40;1.00;;;;;;20857602;28;20090;-44
2023/08/24 09:29:14;;;;;;;9.10;5.80;;;23.70;1.00;;;;;;20857975;28;20041;-44
2023/08/24 09:39:17;;;;;;;9.63;6.80;;;24.10;1.00;;;;;;20862242;28;20594;-43
2023/08/24 09:49:19;;;;;;;7.43;5.10;;;24.20;1.00;;;;;;20854654;28;20344;-44
2023/08/24 09:59:24;;;;;;;6.32;4.75;;;24.20;1.00;;;;;;20861345;28;20365;-44
2023/08/24 10:09:38;;;;;;;6.90;5.30;;;24.30;1.00;;;;;;20871898;28;20060;-44
2023/08/24 10:19:40;;;;;;;10.48;6.43;;;24.00;1.00;;;;;;20871381;28;20068;-43
2023/08/24 10:29:40;;;;;;;10.30;6.40;;;23.80;1.00;;;;;;20856602;28;20044;-44
2023/08/24 10:39:46;;;;;;;10.52;7.35;;;23.60;1.00;;;;;;20870045;28;20060;-45
2023/08/24 10:49:55;;;;;;;10.13;7.13;;;23.40;1.00;;;;;;20873047;28;20044;-44
2023/08/24 11:00:00;;;;;;;11.30;7.43;;;23.20;1.00;;;;;;20857481;28;20072;-44
2023/08/24 11:10:12;;;;;;;16.02;12.10;;;23.10;1.00;;;;;;20842795;28;20441;-44
2023/08/24 11:20:14;;;;;;;18.17;12.60;;;23.30;1.00;;;;;;20846163;28;20499;-44
2023/08/24 11:30:16;;;;;;;12.10;8.82;;;23.60;1.00;;;;;;20843878;28;20625;-44
2023/08/24 11:40:18;;;;;;;11.65;7.22;;;23.80;1.00;;;;;;20829813;28;20049;-44
2023/08/24 11:50:19;;;;;;;12.98;9.63;;;23.90;1.00;;;;;;20847833;28;20538;-44
2023/08/24 12:00:21;;;;;;;15.60;8.90;;;23.80;1.00;;;;;;20825926;28;20476;-44
2023/08/24 12:10:22;;;;;;;9.00;6.57;;;23.80;1.00;;;;;;20836359;28;20372;-44
2023/08/24 12:20:23;;;;;;;14.02;10.13;;;23.90;1.00;;;;;;20829966;28;20122;-44
2023/08/24 12:30:23;;;;;;;14.18;11.00;;;23.80;1.00;;;;;;20837825;28;20083;-44
2023/08/24 12:40:25;;;;;;;12.98;10.82;;;23.20;1.00;;;;;;20838183;28;20045;-44
2023/08/24 12:50:25;;;;;;;18.45;14.07;;;23.00;1.00;;;;;;20842769;28;20387;-44
2023/08/24 13:00:27;;;;;;;15.32;13.52;;;23.00;1.00;;;;;;20847117;28;20388;-44
2023/08/24 13:10:28;;;;;;;12.07;10.88;;;23.30;1.00;;;;;;20850640;28;20051;-44
2023/08/24 13:20:28;;;;;;;12.97;9.57;;;23.30;1.00;;;;;;20855386;28;20040;-44
2023/08/24 13:30:29;;;;;;;15.95;13.68;;;23.20;1.00;;;;;;20852199;28;20045;-44
2023/08/24 13:40:29;;;;;;;12.15;9.73;;;23.80;1.00;;;;;;20852551;28;20048;-44
2023/08/24 13:50:30;;;;;;;7.78;6.85;;;23.90;1.00;;;;;;20848889;28;20028;-44
2023/08/24 14:00:30;;;;;;;16.17;14.00;;;24.00;1.00;;;;;;20833268;28;20040;-44
2023/08/24 14:10:31;;;;;;;15.38;12.90;;;24.10;1.00;;;;;;20840502;28;20056;-44
2023/08/24 14:20:31;;;;;;;21.00;18.67;;;24.10;1.00;;;;;;20848125;28;20051;-44
2023/08/24 14:30:32;;;;;;;27.05;20.73;;;24.10;1.00;;;;;;20841151;28;20048;-43
2023/08/24 14:40:32;;;;;;;17.77;15.35;;;24.30;1.00;;;;;;20838167;28;20456;-43
2023/08/24 14:50:33;;;;;;;22.55;17.15;;;24.30;1.00;;;;;;20837947;28;20068;-44
2023/08/24 15:00:34;;;;;;;17.67;13.98;;;24.40;1.00;;;;;;20821648;28;20048;-44
2023/08/24 15:10:35;;;;;;;19.45;14.43;;;24.30;1.00;;;;;;20840642;28;20045;-44
2023/08/24 15:20:36;;;;;;;20.90;14.55;;;24.20;1.00;;;;;;20839978;28;20337;-43
2023/08/24 15:30:37;;;;;;;14.85;12.38;;;24.40;1.00;;;;;;20840765;28;20048;-44
2023/08/24 15:40:38;;;;;;;17.65;13.45;;;24.90;1.00;;;;;;20823492;28;20049;-44
2023/08/24 15:50:38;;;;;;;17.58;12.80;;;25.20;1.00;;;;;;20806364;28;20033;-44
2023/08/24 16:00:39;;;;;;;14.50;11.25;;;25.20;1.00;;;;;;20808725;28;20049;-43
2023/08/24 16:10:41;;;;;;;13.55;10.65;;;25.00;1.00;;;;;;20824589;28;20037;-43
2023/08/24 16:20:41;;;;;;;11.88;6.25;;;24.80;1.00;;;;;;20837919;28;20072;-44
2023/08/24 16:30:46;;;;;;;8.90;5.60;;;24.70;1.00;;;;;;20851118;28;20586;-44
2023/08/24 16:40:47;;;;;;;8.77;6.10;;;24.60;1.00;;;;;;20798410;28;1076536;-43
2023/08/24 16:50:52;;;;;;;6.85;4.10;;;24.50;1.00;;;;;;20814962;28;20056;-43
2023/08/24 17:00:52;;;;;;;5.88;4.07;;;24.60;1.00;;;;;;20815111;28;20052;-44
2023/08/24 17:10:53;;;;;;;5.53;4.20;;;24.40;1.00;;;;;;20805970;28;22031;-43
2023/08/24 17:20:53;;;;;;;6.90;4.57;;;24.40;1.00;;;;;;20806203;28;20496;-44
2023/08/24 17:30:54;;;;;;;6.10;4.65;;;24.20;1.00;;;;;;20824569;28;20583;-43
2023/08/24 17:41:06;;;;;;;7.85;4.88;;;24.10;1.00;;;;;;20822608;28;20579;-43
2023/08/24 17:51:07;;;;;;;11.25;5.15;;;23.90;1.00;;;;;;20812329;28;20048;-43
2023/08/24 18:01:07;;;;;;;7.05;4.82;;;23.80;1.00;;;;;;20811354;28;20041;-43
2023/08/24 18:11:08;;;;;;;6.55;3.97;;;23.70;1.00;;;;;;20777879;28;20220;-44
2023/08/24 18:21:08;;;;;;;5.68;4.40;;;23.50;1.00;;;;;;20798313;28;20052;-44
2023/08/24 18:31:09;;;;;;;6.40;4.90;;;23.40;1.00;;;;;;20803942;28;20519;-44
2023/08/24 18:41:10;;;;;;;8.03;5.43;;;23.30;1.00;;;;;;20803905;28;21143;-44
2023/08/24 18:51:10;;;;;;;7.38;5.57;;;23.00;1.00;;;;;;20803158;28;20534;-43
2023/08/24 19:01:14;;;;;;;5.75;5.03;;;22.80;1.00;;;;;;20811112;28;20102;-44
2023/08/24 19:11:14;;;;;;;7.65;5.70;;;22.80;1.00;;;;;;20824398;28;20124;-44
2023/08/24 19:21:15;;;;;;;9.73;6.22;;;22.60;1.00;;;;;;20811365;28;20067;-44
2023/08/24 19:31:16;;;;;;;7.68;5.82;;;22.50;1.00;;;;;;20802344;28;20337;-44
2023/08/24 19:41:16;;;;;;;7.97;7.03;;;21.90;1.00;;;;;;20810403;28;20083;-44
2023/08/24 19:51:17;;;;;;;8.60;7.70;;;21.30;43.70;;;;;;20796030;28;20048;-45
2023/08/24 20:01:18;;;;;;;11.53;9.37;;;20.90;99.90;;;;;;20799648;28;20429;-44
2023/08/24 20:11:20;;;;;;;12.00;10.00;;;20.80;99.90;;;;;;20825585;28;20037;-44
2023/08/24 20:21:21;;;;;;;13.65;10.68;;;20.70;99.90;;;;;;20833024;28;20539;-44
2023/08/24 20:31:22;;;;;;;14.63;12.48;;;20.70;99.90;;;;;;20820165;28;20037;-44
2023/08/24 20:41:22;;;;;;;13.95;12.05;;;20.70;99.90;;;;;;20818272;28;20483;-44
2023/08/24 20:51:23;;;;;;;13.15;10.98;;;20.60;99.90;;;;;;20830891;28;20115;-44
2023/08/24 21:01:24;;;;;;;15.48;12.40;;;20.60;99.90;;;;;;20827161;28;20073;-44
2023/08/24 21:11:25;;;;;;;18.02;12.95;;;20.60;99.90;;;;;;20809396;28;20576;-44
2023/08/24 21:21:25;;;;;;;14.93;13.23;;;20.80;99.90;;;;;;20817227;28;20044;-44
2023/08/24 21:31:26;;;;;;;16.23;14.55;;;20.70;99.90;;;;;;20823189;28;20033;-44
2023/08/24 21:41:26;;;;;;;14.50;12.18;;;20.70;99.90;;;;;;20829840;28;20041;-44
2023/08/24 21:51:27;;;;;;;15.03;13.43;;;20.70;99.90;;;;;;20820365;28;20044;-43
2023/08/24 22:01:27;;;;;;;16.60;13.82;;;20.60;99.90;;;;;;20823555;28;20598;-44
2023/08/24 22:11:28;;;;;;;18.05;15.40;;;20.40;99.90;;;;;;20822479;28;20412;-44
2023/08/24 22:21:28;;;;;;;20.17;18.05;;;20.40;99.90;;;;;;20826997;28;20106;-44
2023/08/24 22:31:29;;;;;;;20.35;17.63;;;20.30;99.90;;;;;;20837497;28;20051;-44
2023/08/24 22:41:30;;;;;;;19.60;17.58;;;20.30;99.90;;;;;;20825188;28;20350;-44
2023/08/24 22:51:31;;;;;;;21.02;17.35;;;20.20;99.90;;;;;;20832010;28;20097;-44
2023/08/24 23:01:35;;;;;;;20.80;18.60;;;20.00;99.90;;;;;;20824512;28;20114;-44
2023/08/24 23:11:36;;;;;;;25.65;21.38;;;19.90;99.90;;;;;;20828643;28;20044;-44
2023/08/24 23:21:36;;;;;;;23.88;20.73;;;19.80;99.90;;;;;;20832091;28;20142;-44
2023/08/24 23:31:37;;;;;;;21.70;19.40;;;19.80;99.90;;;;;;20834659;28;20106;-44
2023/08/24 23:41:38;;;;;;;25.80;22.30;;;19.80;99.90;;;;;;20830236;28;20052;-44
2023/08/24 23:51:38;;;;;;;25.15;22.45;;;19.60;99.90;;;;;;20828859;28;20443;-44
